sensor_id;sensor_type;location;lat;lon;timestamp;P1;durP1;ratioP1;P2;durP2;ratioP2
26864;SDS011;40618;51.166;10.322;2023-04-03T00:01:36;32.33;;;10.00;;
26864;SDS011;40618;51.166;10.322;2023-04-03T00:04:03;22.30;;;7.25;;
26864;SDS011;40618;51.166;10.322;2023-04-03T00:06:30;9.18;;;4.15;;
26864;SDS011;40618;51.166;10.322;2023-04-03T00:08:56;18.00;;;6.63;;
26864;SDS011;40618;51.166;10.322;2023-04-03T00:11:22;17.88;;;7.53;;
26864;SDS011;40618;51.166;10.322;2023-04-03T00:13:48;16.75;;;7.80;;
26864;SDS011;40618;51.166;10.322;2023-04-03T00:16:14;14.38;;;7.63;;
26864;SDS011;40618;51.166;10.322;2023-04-03T00:18:40;11.82;;;6.28;;
26864;SDS011;40618;51.166;10.322;2023-04-03T00:21:06;6.55;;;3.13;;
26864;SDS011;40618;51.166;10.322;2023-04-03T00:23:34;8.20;;;3.50;;
26864;SDS011;40618;51.166;10.322;2023-04-03T00:26:00;4.47;;;2.65;;
26864;SDS011;40618;51.166;10.322;2023-04-03T00:28:26;5.57;;;2.30;;
26864;SDS011;40618;51.166;10.322;2023-04-03T00:30:52;9.68;;;4.45;;
26864;SDS011;40618;51.166;10.322;2023-04-03T00:33:17;46.67;;;19.55;;
26864;SDS011;40618;51.166;10.322;2023-04-03T00:35:46;13.38;;;6.25;;
26864;SDS011;40618;51.166;10.322;2023-04-03T00:38:13;25.60;;;10.50;;
26864;SDS011;40618;51.166;10.322;2023-04-03T00:40:41;75.57;;;30.13;;
26864;SDS011;40618;51.166;10.322;2023-04-03T00:43:12;35.75;;;13.90;;
26864;SDS011;40618;51.166;10.322;2023-04-03T00:45:50;15.13;;;5.13;;
26864;SDS011;40618;51.166;10.322;2023-04-03T00:48:23;6.90;;;3.00;;
26864;SDS011;40618;51.166;10.322;2023-04-03T00:50:56;3.92;;;2.08;;
26864;SDS011;40618;51.166;10.322;2023-04-03T00:53:25;7.18;;;1.40;;
26864;SDS011;40618;51.166;10.322;2023-04-03T00:56:05;20.17;;;8.60;;
26864;SDS011;40618;51.166;10.322;2023-04-03T00:58:37;36.75;;;13.98;;
26864;SDS011;40618;51.166;10.322;2023-04-03T01:03:53;16.20;;;5.43;;
26864;SDS011;40618;51.166;10.322;2023-04-03T01:06:20;9.23;;;2.70;;
26864;SDS011;40618;51.166;10.322;2023-04-03T01:08:51;8.95;;;2.28;;
26864;SDS011;40618;51.166;10.322;2023-04-03T01:11:18;29.27;;;7.80;;
26864;SDS011;40618;51.166;10.322;2023-04-03T01:13:43;11.88;;;4.13;;
26864;SDS011;40618;51.166;10.322;2023-04-03T01:16:09;9.57;;;3.10;;
26864;SDS011;40618;51.166;10.322;2023-04-03T01:18:36;109.50;;;30.95;;
26864;SDS011;40618;51.166;10.322;2023-04-03T01:23:38;194.68;;;69.40;;
26864;SDS011;40618;51.166;10.322;2023-04-03T01:26:18;219.70;;;74.72;;
26864;SDS011;40618;51.166;10.322;2023-04-03T01:28:43;213.70;;;74.95;;
26864;SDS011;40618;51.166;10.322;2023-04-03T01:33:41;110.80;;;48.88;;
26864;SDS011;40618;51.166;10.322;2023-04-03T01:36:08;18.52;;;7.93;;
26864;SDS011;40618;51.166;10.322;2023-04-03T01:38:42;6.28;;;3.03;;
26864;SDS011;40618;51.166;10.322;2023-04-03T01:41:08;6.35;;;1.95;;
26864;SDS011;40618;51.166;10.322;2023-04-03T01:43:33;10.25;;;4.55;;
26864;SDS011;40618;51.166;10.322;2023-04-03T01:45:59;7.07;;;4.40;;
26864;SDS011;40618;51.166;10.322;2023-04-03T01:48:25;5.95;;;2.80;;
26864;SDS011;40618;51.166;10.322;2023-04-03T01:50:50;4.03;;;2.70;;
26864;SDS011;40618;51.166;10.322;2023-04-03T01:53:16;3.40;;;1.30;;
26864;SDS011;40618;51.166;10.322;2023-04-03T01:55:42;5.25;;;1.52;;
26864;SDS011;40618;51.166;10.322;2023-04-03T01:58:07;4.82;;;1.27;;
26864;SDS011;40618;51.166;10.322;2023-04-03T02:00:33;3.22;;;1.30;;
26864;SDS011;40618;51.166;10.322;2023-04-03T02:02:58;4.72;;;1.63;;
26864;SDS011;40618;51.166;10.322;2023-04-03T02:05:24;6.57;;;1.42;;
26864;SDS011;40618;51.166;10.322;2023-04-03T02:07:50;5.13;;;1.30;;
26864;SDS011;40618;51.166;10.322;2023-04-03T02:10:15;6.00;;;1.33;;
26864;SDS011;40618;51.166;10.322;2023-04-03T02:12:41;6.32;;;1.20;;
26864;SDS011;40618;51.166;10.322;2023-04-03T02:15:07;4.32;;;1.75;;
26864;SDS011;40618;51.166;10.322;2023-04-03T02:17:34;1.70;;;1.00;;
26864;SDS011;40618;51.166;10.322;2023-04-03T02:20:00;5.78;;;1.60;;
26864;SDS011;40618;51.166;10.322;2023-04-03T02:22:28;5.22;;;1.30;;
26864;SDS011;40618;51.166;10.322;2023-04-03T02:24:53;3.40;;;1.20;;
26864;SDS011;40618;51.166;10.322;2023-04-03T02:27:19;4.10;;;1.52;;
26864;SDS011;40618;51.166;10.322;2023-04-03T02:29:45;7.05;;;1.35;;
26864;SDS011;40618;51.166;10.322;2023-04-03T02:32:11;4.90;;;1.75;;
26864;SDS011;40618;51.166;10.322;2023-04-03T02:34:36;3.38;;;1.52;;
26864;SDS011;40618;51.166;10.322;2023-04-03T02:37:02;3.38;;;1.42;;
26864;SDS011;40618;51.166;10.322;2023-04-03T02:39:28;8.38;;;1.40;;
26864;SDS011;40618;51.166;10.322;2023-04-03T02:41:53;3.88;;;1.30;;
26864;SDS011;40618;51.166;10.322;2023-04-03T02:44:19;5.32;;;1.75;;
26864;SDS011;40618;51.166;10.322;2023-04-03T02:46:44;4.32;;;1.02;;
26864;SDS011;40618;51.166;10.322;2023-04-03T02:49:10;5.13;;;1.25;;
26864;SDS011;40618;51.166;10.322;2023-04-03T02:51:36;2.88;;;1.17;;
26864;SDS011;40618;51.166;10.322;2023-04-03T02:54:01;6.13;;;1.48;;
26864;SDS011;40618;51.166;10.322;2023-04-03T02:56:27;25.13;;;11.25;;
26864;SDS011;40618;51.166;10.322;2023-04-03T02:58:52;19.20;;;13.05;;
26864;SDS011;40618;51.166;10.322;2023-04-03T03:01:18;12.70;;;8.27;;
26864;SDS011;40618;51.166;10.322;2023-04-03T03:03:45;12.48;;;6.90;;
26864;SDS011;40618;51.166;10.322;2023-04-03T03:06:12;7.00;;;2.45;;
26864;SDS011;40618;51.166;10.322;2023-04-03T03:08:41;3.53;;;1.48;;
26864;SDS011;40618;51.166;10.322;2023-04-03T03:11:07;28.95;;;15.70;;
26864;SDS011;40618;51.166;10.322;2023-04-03T03:13:33;6.85;;;3.63;;
26864;SDS011;40618;51.166;10.322;2023-04-03T03:15:59;21.15;;;10.57;;
26864;SDS011;40618;51.166;10.322;2023-04-03T03:18:25;74.05;;;34.80;;
26864;SDS011;40618;51.166;10.322;2023-04-03T03:20:54;13.05;;;5.25;;
26864;SDS011;40618;51.166;10.322;2023-04-03T03:23:23;34.25;;;16.17;;
26864;SDS011;40618;51.166;10.322;2023-04-03T03:25:58;76.95;;;45.28;;
26864;SDS011;40618;51.166;10.322;2023-04-03T03:28:26;8.40;;;4.35;;
26864;SDS011;40618;51.166;10.322;2023-04-03T03:30:53;10.25;;;3.75;;
26864;SDS011;40618;51.166;10.322;2023-04-03T03:33:18;6.20;;;2.22;;
26864;SDS011;40618;51.166;10.322;2023-04-03T03:35:44;9.43;;;1.90;;
26864;SDS011;40618;51.166;10.322;2023-04-03T03:38:10;141.15;;;52.72;;
26864;SDS011;40618;51.166;10.322;2023-04-03T03:40:36;75.40;;;34.75;;
26864;SDS011;40618;51.166;10.322;2023-04-03T03:43:02;18.60;;;10.35;;
26864;SDS011;40618;51.166;10.322;2023-04-03T03:45:28;10.25;;;4.35;;
26864;SDS011;40618;51.166;10.322;2023-04-03T03:47:54;30.85;;;21.00;;
26864;SDS011;40618;51.166;10.322;2023-04-03T03:50:20;6.90;;;3.47;;
26864;SDS011;40618;51.166;10.322;2023-04-03T03:52:45;9.32;;;3.10;;
26864;SDS011;40618;51.166;10.322;2023-04-03T03:55:11;11.60;;;8.13;;
26864;SDS011;40618;51.166;10.322;2023-04-03T03:57:37;6.57;;;2.58;;
26864;SDS011;40618;51.166;10.322;2023-04-03T04:00:03;7.00;;;3.47;;
26864;SDS011;40618;51.166;10.322;2023-04-03T04:02:30;22.58;;;10.82;;
26864;SDS011;40618;51.166;10.322;2023-04-03T04:04:55;20.80;;;13.65;;
26864;SDS011;40618;51.166;10.322;2023-04-03T04:07:21;11.95;;;6.70;;
26864;SDS011;40618;51.166;10.322;2023-04-03T04:09:48;14.35;;;9.77;;
26864;SDS011;40618;51.166;10.322;2023-04-03T04:12:13;8.75;;;3.45;;
26864;SDS011;40618;51.166;10.322;2023-04-03T04:14:41;8.20;;;2.13;;
26864;SDS011;40618;51.166;10.322;2023-04-03T04:17:06;4.75;;;1.90;;
26864;SDS011;40618;51.166;10.322;2023-04-03T04:19:32;9.80;;;4.57;;
26864;SDS011;40618;51.166;10.322;2023-04-03T04:21:58;6.45;;;2.30;;
26864;SDS011;40618;51.166;10.322;2023-04-03T04:24:24;18.60;;;10.38;;
26864;SDS011;40618;51.166;10.322;2023-04-03T04:26:49;7.93;;;2.80;;
26864;SDS011;40618;51.166;10.322;2023-04-03T04:29:15;8.48;;;2.60;;
26864;SDS011;40618;51.166;10.322;2023-04-03T04:31:41;47.28;;;18.92;;
26864;SDS011;40618;51.166;10.322;2023-04-03T04:34:06;58.55;;;28.48;;
26864;SDS011;40618;51.166;10.322;2023-04-03T04:36:32;19.23;;;6.63;;
26864;SDS011;40618;51.166;10.322;2023-04-03T04:38:58;16.42;;;7.80;;
26864;SDS011;40618;51.166;10.322;2023-04-03T04:41:23;20.00;;;10.82;;
26864;SDS011;40618;51.166;10.322;2023-04-03T04:43:49;10.38;;;6.22;;
26864;SDS011;40618;51.166;10.322;2023-04-03T04:46:17;7.38;;;3.03;;
26864;SDS011;40618;51.166;10.322;2023-04-03T04:48:43;6.30;;;3.97;;
26864;SDS011;40618;51.166;10.322;2023-04-03T04:51:10;4.82;;;2.72;;
26864;SDS011;40618;51.166;10.322;2023-04-03T04:53:36;4.32;;;2.17;;
26864;SDS011;40618;51.166;10.322;2023-04-03T04:56:03;11.05;;;5.10;;
26864;SDS011;40618;51.166;10.322;2023-04-03T04:58:29;12.93;;;3.58;;
26864;SDS011;40618;51.166;10.322;2023-04-03T05:00:58;7.22;;;2.00;;
26864;SDS011;40618;51.166;10.322;2023-04-03T05:03:30;11.63;;;4.20;;
26864;SDS011;40618;51.166;10.322;2023-04-03T05:05:56;5.00;;;2.88;;
26864;SDS011;40618;51.166;10.322;2023-04-03T05:08:22;8.77;;;2.55;;
26864;SDS011;40618;51.166;10.322;2023-04-03T05:10:48;4.07;;;1.90;;
26864;SDS011;40618;51.166;10.322;2023-04-03T05:13:14;4.75;;;2.40;;
26864;SDS011;40618;51.166;10.322;2023-04-03T05:15:40;161.73;;;49.90;;
26864;SDS011;40618;51.166;10.322;2023-04-03T05:18:06;212.77;;;60.65;;
26864;SDS011;40618;51.166;10.322;2023-04-03T05:20:32;32.35;;;10.68;;
26864;SDS011;40618;51.166;10.322;2023-04-03T05:22:59;55.72;;;15.20;;
26864;SDS011;40618;51.166;10.322;2023-04-03T05:25:25;42.80;;;12.65;;
26864;SDS011;40618;51.166;10.322;2023-04-03T05:27:51;36.13;;;10.98;;
26864;SDS011;40618;51.166;10.322;2023-04-03T05:30:17;7.53;;;3.47;;
26864;SDS011;40618;51.166;10.322;2023-04-03T05:32:43;9.10;;;3.70;;
26864;SDS011;40618;51.166;10.322;2023-04-03T05:35:09;17.67;;;5.95;;
26864;SDS011;40618;51.166;10.322;2023-04-03T05:37:35;127.78;;;42.30;;
26864;SDS011;40618;51.166;10.322;2023-04-03T05:40:02;19.05;;;6.78;;
26864;SDS011;40618;51.166;10.322;2023-04-03T05:42:29;8.25;;;4.22;;
26864;SDS011;40618;51.166;10.322;2023-04-03T05:44:55;12.50;;;4.20;;
26864;SDS011;40618;51.166;10.322;2023-04-03T05:47:20;8.60;;;3.53;;
26864;SDS011;40618;51.166;10.322;2023-04-03T05:49:47;13.15;;;5.03;;
26864;SDS011;40618;51.166;10.322;2023-04-03T05:52:33;6.47;;;3.40;;
26864;SDS011;40618;51.166;10.322;2023-04-03T05:55:02;9.48;;;3.67;;
26864;SDS011;40618;51.166;10.322;2023-04-03T05:57:29;7.63;;;3.25;;
26864;SDS011;40618;51.166;10.322;2023-04-03T05:59:54;5.90;;;3.22;;
26864;SDS011;40618;51.166;10.322;2023-04-03T06:02:21;5.82;;;2.53;;
26864;SDS011;40618;51.166;10.322;2023-04-03T06:04:49;6.68;;;4.22;;
26864;SDS011;40618;51.166;10.322;2023-04-03T06:07:16;9.57;;;3.03;;
26864;SDS011;40618;51.166;10.322;2023-04-03T06:09:46;13.07;;;7.13;;
26864;SDS011;40618;51.166;10.322;2023-04-03T06:12:12;8.20;;;2.85;;
26864;SDS011;40618;51.166;10.322;2023-04-03T06:14:38;7.63;;;2.90;;
26864;SDS011;40618;51.166;10.322;2023-04-03T06:17:04;10.10;;;2.90;;
26864;SDS011;40618;51.166;10.322;2023-04-03T06:19:31;7.68;;;3.08;;
26864;SDS011;40618;51.166;10.322;2023-04-03T06:21:56;9.93;;;4.78;;
26864;SDS011;40618;51.166;10.322;2023-04-03T06:24:22;6.70;;;1.70;;
26864;SDS011;40618;51.166;10.322;2023-04-03T06:26:49;12.43;;;6.13;;
26864;SDS011;40618;51.166;10.322;2023-04-03T06:29:16;12.75;;;4.32;;
26864;SDS011;40618;51.166;10.322;2023-04-03T06:31:43;4.95;;;3.00;;
26864;SDS011;40618;51.166;10.322;2023-04-03T06:34:09;6.43;;;2.60;;
26864;SDS011;40618;51.166;10.322;2023-04-03T06:36:36;9.30;;;3.15;;
26864;SDS011;40618;51.166;10.322;2023-04-03T06:39:02;7.47;;;2.65;;
26864;SDS011;40618;51.166;10.322;2023-04-03T06:41:28;9.73;;;1.63;;
26864;SDS011;40618;51.166;10.322;2023-04-03T06:43:54;4.20;;;1.63;;
26864;SDS011;40618;51.166;10.322;2023-04-03T06:46:21;2.95;;;1.63;;
26864;SDS011;40618;51.166;10.322;2023-04-03T06:48:48;8.13;;;2.10;;
26864;SDS011;40618;51.166;10.322;2023-04-03T06:53:46;5.53;;;1.58;;
26864;SDS011;40618;51.166;10.322;2023-04-03T06:56:13;5.70;;;1.52;;
26864;SDS011;40618;51.166;10.322;2023-04-03T06:58:39;6.45;;;1.40;;
26864;SDS011;40618;51.166;10.322;2023-04-03T07:01:06;7.72;;;1.77;;
26864;SDS011;40618;51.166;10.322;2023-04-03T07:03:34;6.32;;;1.65;;
26864;SDS011;40618;51.166;10.322;2023-04-03T07:06:00;6.30;;;1.63;;
26864;SDS011;40618;51.166;10.322;2023-04-03T07:08:26;6.95;;;2.50;;
26864;SDS011;40618;51.166;10.322;2023-04-03T07:10:52;5.43;;;2.03;;
26864;SDS011;40618;51.166;10.322;2023-04-03T07:13:17;7.15;;;1.65;;
26864;SDS011;40618;51.166;10.322;2023-04-03T07:15:43;8.32;;;2.10;;
26864;SDS011;40618;51.166;10.322;2023-04-03T07:18:09;7.35;;;1.60;;
26864;SDS011;40618;51.166;10.322;2023-04-03T07:20:34;5.55;;;2.15;;
26864;SDS011;40618;51.166;10.322;2023-04-03T07:23:00;6.55;;;2.03;;
26864;SDS011;40618;51.166;10.322;2023-04-03T07:25:27;6.18;;;1.88;;
26864;SDS011;40618;51.166;10.322;2023-04-03T07:27:53;8.15;;;1.85;;
26864;SDS011;40618;51.166;10.322;2023-04-03T07:30:19;4.45;;;1.58;;
26864;SDS011;40618;51.166;10.322;2023-04-03T07:32:45;4.18;;;1.58;;
26864;SDS011;40618;51.166;10.322;2023-04-03T07:35:11;6.10;;;1.30;;
26864;SDS011;40618;51.166;10.322;2023-04-03T07:37:37;3.45;;;1.40;;
26864;SDS011;40618;51.166;10.322;2023-04-03T07:40:03;5.20;;;1.48;;
26864;SDS011;40618;51.166;10.322;2023-04-03T07:42:30;32.20;;;9.13;;
26864;SDS011;40618;51.166;10.322;2023-04-03T07:44:56;12.65;;;3.15;;
26864;SDS011;40618;51.166;10.322;2023-04-03T07:47:22;28.92;;;11.27;;
26864;SDS011;40618;51.166;10.322;2023-04-03T07:49:47;6.20;;;2.08;;
26864;SDS011;40618;51.166;10.322;2023-04-03T07:52:13;4.47;;;1.50;;
26864;SDS011;40618;51.166;10.322;2023-04-03T07:54:40;6.22;;;1.55;;
26864;SDS011;40618;51.166;10.322;2023-04-03T07:57:07;4.53;;;1.00;;
26864;SDS011;40618;51.166;10.322;2023-04-03T07:59:32;5.47;;;1.42;;
26864;SDS011;40618;51.166;10.322;2023-04-03T08:01:58;2.10;;;0.70;;
26864;SDS011;40618;51.166;10.322;2023-04-03T08:04:24;2.42;;;0.93;;
26864;SDS011;40618;51.166;10.322;2023-04-03T08:06:51;5.63;;;1.00;;
26864;SDS011;40618;51.166;10.322;2023-04-03T08:09:17;4.40;;;1.10;;
26864;SDS011;40618;51.166;10.322;2023-04-03T08:11:44;4.75;;;1.17;;
26864;SDS011;40618;51.166;10.322;2023-04-03T08:14:10;5.30;;;1.40;;
26864;SDS011;40618;51.166;10.322;2023-04-03T08:16:41;3.03;;;0.95;;
26864;SDS011;40618;51.166;10.322;2023-04-03T08:19:09;3.63;;;1.08;;
26864;SDS011;40618;51.166;10.322;2023-04-03T08:21:36;5.13;;;1.48;;
26864;SDS011;40618;51.166;10.322;2023-04-03T08:24:02;5.25;;;1.73;;
26864;SDS011;40618;51.166;10.322;2023-04-03T08:26:29;4.00;;;1.30;;
26864;SDS011;40618;51.166;10.322;2023-04-03T08:28:54;3.75;;;1.10;;
26864;SDS011;40618;51.166;10.322;2023-04-03T08:31:20;9.15;;;2.78;;
26864;SDS011;40618;51.166;10.322;2023-04-03T08:33:46;6.57;;;2.55;;
26864;SDS011;40618;51.166;10.322;2023-04-03T08:36:17;6.43;;;1.88;;
26864;SDS011;40618;51.166;10.322;2023-04-03T08:38:49;4.15;;;1.00;;
26864;SDS011;40618;51.166;10.322;2023-04-03T08:41:33;5.70;;;1.17;;
26864;SDS011;40618;51.166;10.322;2023-04-03T08:44:23;2.95;;;0.80;;
26864;SDS011;40618;51.166;10.322;2023-04-03T08:49:59;4.72;;;1.67;;
26864;SDS011;40618;51.166;10.322;2023-04-03T08:52:42;4.32;;;1.50;;
26864;SDS011;40618;51.166;10.322;2023-04-03T09:00:34;4.80;;;1.10;;
26864;SDS011;40618;51.166;10.322;2023-04-03T09:03:14;6.00;;;1.90;;
26864;SDS011;40618;51.166;10.322;2023-04-03T09:05:55;4.38;;;1.25;;
26864;SDS011;40618;51.166;10.322;2023-04-03T09:08:43;2.78;;;1.20;;
26864;SDS011;40618;51.166;10.322;2023-04-03T09:14:42;5.45;;;1.33;;
26864;SDS011;40618;51.166;10.322;2023-04-03T09:17:34;1.80;;;0.80;;
26864;SDS011;40618;51.166;10.322;2023-04-03T09:20:21;6.25;;;1.13;;
26864;SDS011;40618;51.166;10.322;2023-04-03T09:23:15;3.10;;;0.70;;
26864;SDS011;40618;51.166;10.322;2023-04-03T09:25:56;2.65;;;0.90;;
26864;SDS011;40618;51.166;10.322;2023-04-03T09:28:30;3.47;;;0.90;;
26864;SDS011;40618;51.166;10.322;2023-04-03T09:31:05;3.75;;;0.98;;
26864;SDS011;40618;51.166;10.322;2023-04-03T09:34:27;4.22;;;1.30;;
26864;SDS011;40618;51.166;10.322;2023-04-03T09:37:01;5.40;;;0.95;;
26864;SDS011;40618;51.166;10.322;2023-04-03T09:39:31;1.95;;;0.80;;
26864;SDS011;40618;51.166;10.322;2023-04-03T09:42:15;4.75;;;0.98;;
26864;SDS011;40618;51.166;10.322;2023-04-03T09:45:21;1.83;;;0.80;;
26864;SDS011;40618;51.166;10.322;2023-04-03T09:48:04;1.73;;;1.00;;
26864;SDS011;40618;51.166;10.322;2023-04-03T09:51:00;3.90;;;0.90;;
26864;SDS011;40618;51.166;10.322;2023-04-03T09:53:39;2.55;;;0.82;;
26864;SDS011;40618;51.166;10.322;2023-04-03T09:58:46;3.90;;;1.10;;
26864;SDS011;40618;51.166;10.322;2023-04-03T10:01:21;4.53;;;1.05;;
26864;SDS011;40618;51.166;10.322;2023-04-03T10:06:38;1.20;;;0.70;;
26864;SDS011;40618;51.166;10.322;2023-04-03T10:09:28;3.17;;;1.10;;
26864;SDS011;40618;51.166;10.322;2023-04-03T10:12:09;2.85;;;0.80;;
26864;SDS011;40618;51.166;10.322;2023-04-03T10:14:40;3.03;;;0.95;;
26864;SDS011;40618;51.166;10.322;2023-04-03T10:41:04;2.65;;;0.88;;
26864;SDS011;40618;51.166;10.322;2023-04-03T10:46:51;1.77;;;0.68;;
26864;SDS011;40618;51.166;10.322;2023-04-03T10:52:17;3.35;;;0.80;;
26864;SDS011;40618;51.166;10.322;2023-04-03T10:57:39;2.47;;;0.80;;
26864;SDS011;40618;51.166;10.322;2023-04-03T11:00:51;2.08;;;0.73;;
26864;SDS011;40618;51.166;10.322;2023-04-03T11:03:12;2.50;;;0.80;;
26864;SDS011;40618;51.166;10.322;2023-04-03T11:05:48;2.17;;;0.85;;
26864;SDS011;40618;51.166;10.322;2023-04-03T11:08:24;2.33;;;0.65;;
26864;SDS011;40618;51.166;10.322;2023-04-03T11:10:55;2.20;;;0.80;;
26864;SDS011;40618;51.166;10.322;2023-04-03T11:16:15;3.22;;;0.85;;
26864;SDS011;40618;51.166;10.322;2023-04-03T11:18:56;2.53;;;0.63;;
26864;SDS011;40618;51.166;10.322;2023-04-03T11:21:29;2.08;;;0.82;;
26864;SDS011;40618;51.166;10.322;2023-04-03T11:24:05;1.77;;;0.90;;
26864;SDS011;40618;51.166;10.322;2023-04-03T11:26:44;3.20;;;1.20;;
26864;SDS011;40618;51.166;10.322;2023-04-03T11:29:12;2.92;;;0.90;;
26864;SDS011;40618;51.166;10.322;2023-04-03T11:37:34;1.20;;;0.80;;
26864;SDS011;40618;51.166;10.322;2023-04-03T11:40:08;2.90;;;0.88;;
26864;SDS011;40618;51.166;10.322;2023-04-03T11:42:48;1.95;;;0.73;;
26864;SDS011;40618;51.166;10.322;2023-04-03T11:47:59;3.55;;;0.73;;
26864;SDS011;40618;51.166;10.322;2023-04-03T11:50:57;4.05;;;1.38;;
26864;SDS011;40618;51.166;10.322;2023-04-03T11:53:26;3.67;;;1.10;;
26864;SDS011;40618;51.166;10.322;2023-04-03T11:55:58;2.15;;;0.68;;
26864;SDS011;40618;51.166;10.322;2023-04-03T11:58:28;3.22;;;0.80;;
26864;SDS011;40618;51.166;10.322;2023-04-03T12:01:42;1.52;;;0.65;;
26864;SDS011;40618;51.166;10.322;2023-04-03T12:04:09;3.10;;;0.70;;
26864;SDS011;40618;51.166;10.322;2023-04-03T12:26:42;1.20;;;0.70;;
26864;SDS011;40618;51.166;10.322;2023-04-03T12:40:41;3.78;;;1.00;;
26864;SDS011;40618;51.166;10.322;2023-04-03T12:43:27;1.52;;;0.80;;
26864;SDS011;40618;51.166;10.322;2023-04-03T12:46:23;3.45;;;0.90;;
26864;SDS011;40618;51.166;10.322;2023-04-03T12:48:58;1.88;;;0.95;;
26864;SDS011;40618;51.166;10.322;2023-04-03T12:51:37;1.90;;;0.90;;
26864;SDS011;40618;51.166;10.322;2023-04-03T12:57:08;1.17;;;0.82;;
26864;SDS011;40618;51.166;10.322;2023-04-03T12:59:36;4.68;;;1.02;;
26864;SDS011;40618;51.166;10.322;2023-04-03T13:02:07;3.22;;;0.80;;
26864;SDS011;40618;51.166;10.322;2023-04-03T13:04:49;2.58;;;0.90;;
26864;SDS011;40618;51.166;10.322;2023-04-03T13:07:18;2.55;;;1.00;;
26864;SDS011;40618;51.166;10.322;2023-04-03T13:09:57;3.38;;;1.23;;
26864;SDS011;40618;51.166;10.322;2023-04-03T13:12:28;2.85;;;1.25;;
26864;SDS011;40618;51.166;10.322;2023-04-03T13:14:57;2.22;;;1.02;;
26864;SDS011;40618;51.166;10.322;2023-04-03T13:17:29;1.63;;;0.98;;
26864;SDS011;40618;51.166;10.322;2023-04-03T13:20:06;1.48;;;0.80;;
26864;SDS011;40618;51.166;10.322;2023-04-03T13:25:14;3.63;;;0.90;;
26864;SDS011;40618;51.166;10.322;2023-04-03T13:27:42;1.85;;;0.85;;
26864;SDS011;40618;51.166;10.322;2023-04-03T13:33:18;4.03;;;1.00;;
26864;SDS011;40618;51.166;10.322;2023-04-03T13:35:48;4.00;;;1.30;;
26864;SDS011;40618;51.166;10.322;2023-04-03T13:38:29;1.92;;;0.55;;
26864;SDS011;40618;51.166;10.322;2023-04-03T13:40:59;2.75;;;0.98;;
26864;SDS011;40618;51.166;10.322;2023-04-03T13:43:31;3.08;;;0.75;;
26864;SDS011;40618;51.166;10.322;2023-04-03T13:48:43;2.25;;;0.80;;
26864;SDS011;40618;51.166;10.322;2023-04-03T13:53:45;2.17;;;0.82;;
26864;SDS011;40618;51.166;10.322;2023-04-03T13:56:17;0.88;;;0.60;;
26864;SDS011;40618;51.166;10.322;2023-04-03T14:01:45;2.83;;;0.95;;
26864;SDS011;40618;51.166;10.322;2023-04-03T14:07:12;2.53;;;1.20;;
26864;SDS011;40618;51.166;10.322;2023-04-03T14:09:41;4.13;;;1.05;;
26864;SDS011;40618;51.166;10.322;2023-04-03T14:12:08;3.40;;;1.08;;
26864;SDS011;40618;51.166;10.322;2023-04-03T14:14:49;1.42;;;0.80;;
26864;SDS011;40618;51.166;10.322;2023-04-03T14:17:25;3.20;;;1.20;;
26864;SDS011;40618;51.166;10.322;2023-04-03T14:19:53;1.17;;;0.80;;
26864;SDS011;40618;51.166;10.322;2023-04-03T14:22:25;3.22;;;0.98;;
26864;SDS011;40618;51.166;10.322;2023-04-03T14:24:57;2.45;;;0.77;;
26864;SDS011;40618;51.166;10.322;2023-04-03T14:27:25;2.85;;;1.00;;
26864;SDS011;40618;51.166;10.322;2023-04-03T14:29:56;1.98;;;0.70;;
26864;SDS011;40618;51.166;10.322;2023-04-03T14:32:23;1.85;;;0.88;;
26864;SDS011;40618;51.166;10.322;2023-04-03T14:34:50;5.38;;;0.90;;
26864;SDS011;40618;51.166;10.322;2023-04-03T14:37:22;1.15;;;0.70;;
26864;SDS011;40618;51.166;10.322;2023-04-03T14:39:53;1.23;;;0.60;;
26864;SDS011;40618;51.166;10.322;2023-04-03T14:42:21;3.65;;;1.15;;
26864;SDS011;40618;51.166;10.322;2023-04-03T14:44:51;1.83;;;0.82;;
26864;SDS011;40618;51.166;10.322;2023-04-03T14:47:21;2.67;;;0.93;;
26864;SDS011;40618;51.166;10.322;2023-04-03T14:49:51;3.72;;;0.90;;
26864;SDS011;40618;51.166;10.322;2023-04-03T14:52:22;2.00;;;0.80;;
26864;SDS011;40618;51.166;10.322;2023-04-03T14:54:55;1.55;;;1.08;;
26864;SDS011;40618;51.166;10.322;2023-04-03T14:57:23;1.45;;;0.88;;
26864;SDS011;40618;51.166;10.322;2023-04-03T14:59:51;2.22;;;0.98;;
26864;SDS011;40618;51.166;10.322;2023-04-03T15:05:00;4.22;;;1.20;;
26864;SDS011;40618;51.166;10.322;2023-04-03T15:07:31;2.17;;;0.98;;
26864;SDS011;40618;51.166;10.322;2023-04-03T15:10:23;1.95;;;1.08;;
26864;SDS011;40618;51.166;10.322;2023-04-03T15:12:54;1.23;;;0.80;;
26864;SDS011;40618;51.166;10.322;2023-04-03T15:15:21;3.83;;;1.20;;
26864;SDS011;40618;51.166;10.322;2023-04-03T15:17:53;1.42;;;0.95;;
26864;SDS011;40618;51.166;10.322;2023-04-03T15:20:23;1.40;;;0.85;;
26864;SDS011;40618;51.166;10.322;2023-04-03T15:22:51;1.83;;;0.80;;
26864;SDS011;40618;51.166;10.322;2023-04-03T15:25:17;3.25;;;1.00;;
26864;SDS011;40618;51.166;10.322;2023-04-03T15:27:44;3.83;;;1.23;;
26864;SDS011;40618;51.166;10.322;2023-04-03T15:30:13;1.77;;;1.10;;
26864;SDS011;40618;51.166;10.322;2023-04-03T15:32:43;2.85;;;1.27;;
26864;SDS011;40618;51.166;10.322;2023-04-03T15:35:09;3.53;;;1.63;;
26864;SDS011;40618;51.166;10.322;2023-04-03T15:37:35;2.63;;;0.98;;
26864;SDS011;40618;51.166;10.322;2023-04-03T15:40:01;2.85;;;1.00;;
26864;SDS011;40618;51.166;10.322;2023-04-03T15:42:28;4.82;;;2.47;;
26864;SDS011;40618;51.166;10.322;2023-04-03T15:44:54;4.00;;;1.13;;
26864;SDS011;40618;51.166;10.322;2023-04-03T15:47:19;2.80;;;0.93;;
26864;SDS011;40618;51.166;10.322;2023-04-03T15:49:45;2.80;;;1.20;;
26864;SDS011;40618;51.166;10.322;2023-04-03T15:52:11;2.00;;;1.00;;
26864;SDS011;40618;51.166;10.322;2023-04-03T15:54:37;1.63;;;1.05;;
26864;SDS011;40618;51.166;10.322;2023-04-03T15:57:03;3.63;;;1.00;;
26864;SDS011;40618;51.166;10.322;2023-04-03T15:59:28;1.88;;;0.90;;
26864;SDS011;40618;51.166;10.322;2023-04-03T16:01:55;5.20;;;1.25;;
26864;SDS011;40618;51.166;10.322;2023-04-03T16:04:22;3.63;;;1.38;;
26864;SDS011;40618;51.166;10.322;2023-04-03T16:06:47;2.70;;;1.20;;
26864;SDS011;40618;51.166;10.322;2023-04-03T16:09:14;2.80;;;0.90;;
26864;SDS011;40618;51.166;10.322;2023-04-03T16:11:40;1.98;;;0.88;;
26864;SDS011;40618;51.166;10.322;2023-04-03T16:14:06;3.50;;;1.05;;
26864;SDS011;40618;51.166;10.322;2023-04-03T16:16:33;2.83;;;1.00;;
26864;SDS011;40618;51.166;10.322;2023-04-03T16:19:00;5.38;;;0.82;;
26864;SDS011;40618;51.166;10.322;2023-04-03T16:21:26;1.60;;;0.93;;
26864;SDS011;40618;51.166;10.322;2023-04-03T16:23:52;6.35;;;1.25;;
26864;SDS011;40618;51.166;10.322;2023-04-03T16:26:18;3.92;;;1.02;;
26864;SDS011;40618;51.166;10.322;2023-04-03T16:28:45;3.78;;;2.33;;
26864;SDS011;40618;51.166;10.322;2023-04-03T16:31:10;3.45;;;1.75;;
26864;SDS011;40618;51.166;10.322;2023-04-03T16:33:36;4.60;;;2.90;;
26864;SDS011;40618;51.166;10.322;2023-04-03T16:36:03;40.65;;;31.27;;
26864;SDS011;40618;51.166;10.322;2023-04-03T16:38:30;21.35;;;10.75;;
26864;SDS011;40618;51.166;10.322;2023-04-03T16:40:55;57.80;;;30.17;;
26864;SDS011;40618;51.166;10.322;2023-04-03T16:43:29;15.73;;;9.85;;
26864;SDS011;40618;51.166;10.322;2023-04-03T16:45:57;7.18;;;3.20;;
26864;SDS011;40618;51.166;10.322;2023-04-03T16:48:23;5.63;;;2.03;;
26864;SDS011;40618;51.166;10.322;2023-04-03T16:50:49;3.47;;;1.35;;